Time;durP1;ratioP1;P1;durP2;ratioP2;P2;SDS_P1;SDS_P2;PMS_P1;PMS_P2;Temp;Humidity;BMP_temperature;BMP_pressure;BME280_temperature;BME280_humidity;BME280_pressure;Samples;Min_cycle;Max_cycle;Signal;HPM_P1;HPM_P2
2024/03/04 00:00:50;;;;;;;0.30;0.30;;;;;;;5.78;96.15;96785.28;4961211;28;20061;-65
2024/03/04 00:03:17;;;;;;;0.30;0.30;;;;;;;5.94;96.43;96783.47;4961225;28;20061;-66
2024/03/04 00:05:43;;;;;;;0.30;0.30;;;;;;;6.04;94.57;96781.03;4961130;28;20059;-66
2024/03/04 00:08:10;;;;;;;0.30;0.30;;;;;;;5.76;94.92;96735.34;4962787;28;20050;-65
2024/03/04 00:10:37;;;;;;;0.30;0.30;;;;;;;6.03;93.85;96790.44;4962884;28;20061;-65
2024/03/04 00:13:04;;;;;;;0.30;0.30;;;;;;;5.98;92.90;96765.91;4962252;28;20100;-66
2024/03/04 00:15:31;;;;;;;0.30;0.30;;;;;;;4.83;92.81;96578.31;4961045;28;20078;-64
2024/03/04 00:17:59;;;;;;;0.30;0.30;;;;;;;5.72;92.82;96739.97;4961023;28;20505;-66
2024/03/04 00:20:26;;;;;;;0.30;0.30;;;;;;;6.09;93.25;96793.72;4962392;28;20051;-66
2024/03/04 00:22:53;;;;;;;0.40;0.40;;;;;;;5.81;92.96;96740.63;4962295;28;20515;-65
2024/03/04 00:25:20;;;;;;;0.30;0.30;;;;;;;6.09;92.75;96782.72;4961115;28;20070;-66
2024/03/04 00:27:53;;;;;;;0.30;0.30;;;;;;;6.19;92.93;96787.75;4962439;28;20590;-66
2024/03/04 00:30:20;;;;;;;0.35;0.35;;;;;;;6.16;92.55;96782.94;4960988;28;20556;-67
2024/03/04 00:32:47;;;;;;;0.30;0.30;;;;;;;6.16;93.34;96788.44;4962862;28;20055;-65
2024/03/04 00:35:15;;;;;;;0.35;0.35;;;;;;;5.64;91.81;96705.16;4961031;28;20058;-66
2024/03/04 00:37:43;;;;;;;0.30;0.30;;;;;;;5.80;92.09;96704.09;4962224;28;20157;-66
2024/03/04 00:40:12;;;;;;;0.40;0.40;;;;;;;6.40;91.88;96777.38;4962051;28;20062;-65
2024/03/04 00:42:39;;;;;;;0.30;0.30;;;;;;;6.52;91.23;96790.25;4962237;28;20264;-66
2024/03/04 00:45:06;;;;;;;0.40;0.40;;;;;;;6.50;91.83;96782.34;4961789;28;20062;-66
2024/03/04 00:47:33;;;;;;;0.38;0.38;;;;;;;6.61;91.95;96780.69;4960633;28;20055;-65
2024/03/04 00:50:01;;;;;;;0.30;0.30;;;;;;;6.66;91.34;96785.97;4961484;28;20478;-66
2024/03/04 00:52:28;;;;;;;0.40;0.40;;;;;;;6.76;91.77;96774.44;4960346;28;20108;-65
2024/03/04 00:54:56;;;;;;;0.35;0.35;;;;;;;6.85;91.70;96766.81;4976779;28;20511;-66
2024/03/04 00:57:23;;;;;;;0.40;0.40;;;;;;;6.86;91.46;96775.88;4960304;28;20051;-67
2024/03/04 00:59:50;;;;;;;0.40;0.40;;;;;;;6.92;91.68;96774.47;4961966;28;20144;-67
2024/03/04 01:02:17;;;;;;;0.30;0.30;;;;;;;6.67;91.13;96731.72;4961747;28;20062;-66
2024/03/04 01:04:45;;;;;;;0.40;0.40;;;;;;;7.04;90.54;96764.19;4960904;28;20116;-68
2024/03/04 01:07:14;;;;;;;0.40;0.40;;;;;;;7.00;90.90;96768.78;4961741;28;20144;-67
2024/03/04 01:09:41;;;;;;;0.40;0.40;;;;;;;6.59;91.20;96714.19;4961947;28;20050;-67
2024/03/04 01:12:08;;;;;;;0.30;0.30;;;;;;;7.06;91.22;96756.38;4962335;28;20460;-68
2024/03/04 01:14:38;;;;;;;0.30;0.30;;;;;;;7.03;90.71;96757.09;4960359;28;20063;-66
2024/03/04 01:17:12;;;;;;;0.30;0.30;;;;;;;7.05;90.78;96765.75;4962098;28;20055;-67
2024/03/04 01:19:45;;;;;;;0.40;0.40;;;;;;;7.09;89.94;96755.66;4961784;28;20060;-68
2024/03/04 01:22:17;;;;;;;0.40;0.40;;;;;;;7.06;90.87;96753.63;4961700;28;20483;-66
2024/03/04 01:24:49;;;;;;;0.30;0.30;;;;;;;4.92;93.01;96486.50;4961703;28;20265;-67
2024/03/04 01:27:17;;;;;;;0.40;0.40;;;;;;;6.71;94.91;96755.44;4960292;28;20062;-67
2024/03/04 01:29:44;;;;;;;0.40;0.40;;;;;;;7.02;92.38;96760.16;4959888;28;20054;-66
2024/03/04 01:32:10;;;;;;;0.40;0.40;;;;;;;7.05;92.69;96754.75;4959892;28;20061;-67
2024/03/04 01:34:41;;;;;;;0.40;0.40;;;;;;;6.94;92.55;96752.91;4961311;28;20053;-67
2024/03/04 01:37:09;;;;;;;0.30;0.30;;;;;;;7.15;91.73;96759.75;4959604;28;20544;-67
2024/03/04 01:39:37;;;;;;;0.35;0.35;;;;;;;7.11;92.19;96756.06;4960790;28;20083;-66
2024/03/04 01:42:04;;;;;;;0.40;0.40;;;;;;;7.22;91.85;96765.41;4961292;28;20054;-66
2024/03/04 01:44:36;;;;;;;0.35;0.35;;;;;;;6.97;91.84;96725.44;4961295;28;20524;-67
2024/03/04 01:47:07;;;;;;;0.40;0.40;;;;;;;7.25;91.68;96753.72;4961879;28;20494;-65
2024/03/04 01:49:36;;;;;;;0.30;0.30;;;;;;;7.35;91.73;96764.16;4961683;28;20088;-67
2024/03/04 01:52:05;;;;;;;0.40;0.40;;;;;;;7.41;92.58;96765.50;4959855;28;20058;-66
2024/03/04 01:54:34;;;;;;;0.40;0.40;;;;;;;7.55;91.32;96762.28;4961335;28;20423;-67
2024/03/04 01:57:02;;;;;;;0.30;0.30;;;;;;;7.19;90.76;96700.03;4959576;28;20757;-67
2024/03/04 01:59:31;;;;;;;0.40;0.40;;;;;;;7.67;90.06;96762.19;4961154;28;20818;-66
2024/03/04 02:01:58;;;;;;;0.40;0.40;;;;;;;7.71;91.09;96763.09;4961034;28;20112;-67
2024/03/04 02:04:26;;;;;;;0.40;0.40;;;;;;;7.74;90.52;96768.66;4959426;28;20062;-68
2024/03/04 02:06:53;;;;;;;0.40;0.40;;;;;;;7.87;89.97;96763.84;4960514;28;20058;-67
2024/03/04 02:09:24;;;;;;;0.40;0.40;;;;;;;7.35;91.21;96758.66;4959194;28;20086;-66
2024/03/04 02:11:52;;;;;;;0.40;0.40;;;;;;;7.24;93.37;96763.09;4959362;28;20425;-66
2024/03/04 02:14:19;;;;;;;0.40;0.40;;;;;;;6.97;93.31;96780.50;4960721;28;20501;-68
2024/03/04 02:16:46;;;;;;;0.40;0.40;;;;;;;6.94;95.16;96766.66;4959557;28;20067;-68
2024/03/04 02:19:14;;;;;;;0.38;0.38;;;;;;;7.14;93.88;96774.69;4960091;28;20316;-68
2024/03/04 02:21:50;;;;;;;0.40;0.40;;;;;;;7.06;92.65;96709.56;4959309;28;20128;-67
2024/03/04 02:24:17;;;;;;;0.40;0.40;;;;;;;7.17;92.17;96768.44;4960790;28;20086;-66
2024/03/04 02:26:44;;;;;;;0.40;0.40;;;;;;;7.26;92.10;96771.00;4960723;28;20054;-67
2024/03/04 02:29:10;;;;;;;0.40;0.40;;;;;;;7.20;92.37;96756.72;4960556;28;20051;-67
2024/03/04 02:31:39;;;;;;;0.40;0.40;;;;;;;7.22;92.80;96759.91;4959057;28;20497;-67
2024/03/04 02:34:06;;;;;;;0.38;0.38;;;;;;;7.25;92.38;96728.91;4960594;28;20062;-67
2024/03/04 02:36:33;;;;;;;0.40;0.40;;;;;;;7.12;90.95;96721.91;4959541;28;20059;-66
2024/03/04 02:39:03;;;;;;;0.40;0.40;;;;;;;6.78;89.96;96666.75;4958755;28;20068;-65
2024/03/04 02:41:30;;;;;;;0.40;0.40;;;;;;;7.34;90.84;96801.16;4960663;28;20057;-67
2024/03/04 02:43:58;;;;;;;0.40;0.40;;;;;;;7.37;91.39;96761.88;4960324;28;20503;-68
2024/03/04 02:46:25;;;;;;;0.30;0.30;;;;;;;7.03;93.17;96770.84;4959232;28;20061;-67
2024/03/04 02:48:54;;;;;;;0.30;0.30;;;;;;;6.12;94.80;96666.53;4960586;28;20050;-66
2024/03/04 02:51:21;;;;;;;0.30;0.30;;;;;;;6.99;95.09;96769.94;4959669;28;20133;-67
2024/03/04 02:53:48;;;;;;;0.40;0.40;;;;;;;7.04;94.26;96775.19;4960577;28;20066;-68
2024/03/04 02:56:15;;;;;;;0.40;0.40;;;;;;;7.17;93.31;96771.22;4960482;28;20158;-67
2024/03/04 02:58:42;;;;;;;0.40;0.40;;;;;;;6.83;93.55;96749.84;4958959;28;20578;-67
2024/03/04 03:01:09;;;;;;;0.40;0.40;;;;;;;6.79;93.48;96713.19;4955732;28;20065;-67
2024/03/04 03:03:35;;;;;;;0.40;0.40;;;;;;;6.89;93.46;96718.16;4939561;29;20051;-66
2024/03/04 03:06:04;;;;;;;0.40;0.40;;;;;;;7.34;93.29;96768.09;4955714;28;20058;-67
2024/03/04 03:08:32;;;;;;;0.35;0.35;;;;;;;7.35;93.27;96780.69;4960123;28;20053;-67
2024/03/04 03:10:58;;;;;;;0.35;0.35;;;;;;;7.50;92.48;96771.66;4960080;28;20061;-66
2024/03/04 03:13:26;;;;;;;0.40;0.40;;;;;;;7.52;92.43;96780.34;4958382;28;20070;-67
2024/03/04 03:15:53;;;;;;;0.40;0.40;;;;;;;6.68;91.56;96628.72;4958290;28;20444;-66
2024/03/04 03:18:20;;;;;;;0.40;0.40;;;;;;;7.01;91.07;96681.47;4959940;28;20298;-67
2024/03/04 03:20:47;;;;;;;0.40;0.40;;;;;;;7.69;91.36;96774.47;4959645;28;20146;-66
2024/03/04 03:23:14;;;;;;;0.40;0.40;;;;;;;7.67;91.15;96775.97;4959915;28;20125;-65
2024/03/04 03:25:41;;;;;;;0.40;0.40;;;;;;;7.47;91.01;96733.78;4958357;28;20073;-66
2024/03/04 03:28:08;;;;;;;0.40;0.40;;;;;;;7.44;90.48;96723.47;4960914;28;20533;-67
2024/03/04 03:30:35;;;;;;;0.40;0.40;;;;;;;7.89;91.14;96777.28;4962318;28;20055;-68
2024/03/04 03:33:01;;;;;;;0.38;0.38;;;;;;;7.88;90.50;96775.66;4963677;28;20065;-67
2024/03/04 03:35:28;;;;;;;0.40;0.40;;;;;;;7.34;90.78;96707.47;4963487;28;20046;-67
2024/03/04 03:37:58;;;;;;;0.40;0.40;;;;;;;7.26;92.18;96738.78;4963485;28;20057;-67
2024/03/04 03:40:25;;;;;;;0.40;0.40;;;;;;;7.74;92.05;96785.19;4963039;28;20065;-67
2024/03/04 03:42:52;;;;;;;0.40;0.40;;;;;;;7.71;91.26;96772.13;4961534;28;20164;-67
2024/03/04 03:45:19;;;;;;;0.40;0.40;;;;;;;7.84;91.17;96781.09;4962154;28;20448;-68
2024/03/04 03:47:46;;;;;;;0.40;0.40;;;;;;;7.85;91.37;96776.38;4963298;28;20077;-67
2024/03/04 03:50:13;;;;;;;0.40;0.40;;;;;;;7.22;91.08;96659.97;4961047;28;20247;-66
2024/03/04 03:52:40;;;;;;;0.40;0.40;;;;;;;7.68;90.62;96730.72;4963100;28;20389;-68
2024/03/04 03:55:06;;;;;;;0.50;0.50;;;;;;;7.69;90.78;96735.06;4962614;28;20059;-67
2024/03/04 03:57:33;;;;;;;0.40;0.40;;;;;;;8.09;90.62;96778.91;4962784;28;20414;-68
2024/03/04 04:00:17;;;;;;;0.40;0.40;;;;;;;7.98;89.68;96769.59;4962772;28;20066;-67
2024/03/04 04:02:44;;;;;;;0.45;0.45;;;;;;;8.00;90.88;96794.88;4963010;28;20062;-66
2024/03/04 04:05:11;;;;;;;0.40;0.40;;;;;;;7.66;89.32;96742.09;4962704;28;20057;-66
2024/03/04 04:07:37;;;;;;;0.43;0.43;;;;;;;7.80;90.85;96795.94;4960881;28;20051;-67
2024/03/04 04:10:05;;;;;;;0.40;0.40;;;;;;;8.00;90.67;96795.66;4963137;28;20054;-65
2024/03/04 04:12:32;;;;;;;0.40;0.40;;;;;;;8.08;90.69;96799.38;4963006;28;20050;-65
2024/03/04 04:14:59;;;;;;;0.40;0.40;;;;;;;8.10;89.60;96794.28;4961525;28;20444;-65
2024/03/04 04:17:25;;;;;;;0.40;0.40;;;;;;;8.07;89.57;96806.03;4962714;28;20577;-67
2024/03/04 04:19:52;;;;;;;0.40;0.40;;;;;;;8.12;89.94;96794.72;4962445;28;20078;-67
2024/03/04 04:22:19;;;;;;;0.40;0.40;;;;;;;8.27;88.98;96802.97;4961224;28;20055;-68
2024/03/04 04:24:46;;;;;;;0.40;0.40;;;;;;;8.22;88.92;96810.72;4962155;28;20051;-67
2024/03/04 04:27:12;;;;;;;0.40;0.40;;;;;;;7.84;88.89;96747.22;4962026;28;20054;-67
2024/03/04 04:29:39;;;;;;;0.40;0.40;;;;;;;7.64;89.41;96716.84;4962244;28;20054;-67
2024/03/04 04:32:06;;;;;;;0.40;0.40;;;;;;;8.19;89.64;96792.13;4962127;28;20059;-67
2024/03/04 04:34:33;;;;;;;0.40;0.40;;;;;;;7.35;89.93;96656.72;4962225;28;20062;-66
2024/03/04 04:37:00;;;;;;;0.40;0.40;;;;;;;8.22;89.60;96786.69;4961780;28;20506;-66
2024/03/04 04:39:27;;;;;;;0.40;0.40;;;;;;;8.25;89.32;96790.72;4966370;28;20046;-66
2024/03/04 04:41:53;;;;;;;0.40;0.40;;;;;;;8.26;89.71;96808.88;4960362;28;20557;-67
2024/03/04 04:44:21;;;;;;;0.40;0.40;;;;;;;8.04;89.54;96743.31;4960565;28;20057;-66
2024/03/04 04:46:47;;;;;;;0.40;0.40;;;;;;;8.38;89.07;96789.41;4962096;28;20047;-67
2024/03/04 04:49:14;;;;;;;0.40;0.40;;;;;;;8.39;89.19;96794.59;4961837;28;20061;-67
2024/03/04 04:51:45;;;;;;;0.40;0.40;;;;;;;8.44;89.11;96793.50;4962547;28;20062;-66
2024/03/04 04:54:12;;;;;;;0.40;0.40;;;;;;;7.66;88.71;96680.66;4962001;28;20069;-66
2024/03/04 04:56:39;;;;;;;0.40;0.40;;;;;;;8.42;89.20;96790.28;4961655;28;20059;-67
2024/03/04 04:59:06;;;;;;;0.40;0.40;;;;;;;8.53;88.54;96794.06;4962051;28;20055;-67
2024/03/04 05:01:33;;;;;;;0.40;0.40;;;;;;;8.62;87.93;96789.13;4961696;28;20588;-67
2024/03/04 05:04:01;;;;;;;0.40;0.40;;;;;;;8.68;87.90;96793.19;4961973;28;20051;-67
2024/03/04 05:06:48;;;;;;;0.40;0.40;;;;;;;8.67;87.90;96808.16;4962123;28;20053;-67
2024/03/04 05:09:14;;;;;;;0.40;0.40;;;;;;;8.57;88.13;96787.47;4961599;28;20047;-67
2024/03/04 05:11:41;;;;;;;0.40;0.40;;;;;;;8.57;89.24;96819.78;4960154;28;20126;-66
2024/03/04 05:14:09;;;;;;;0.40;0.40;;;;;;;8.66;88.77;96817.63;4960872;28;20069;-65
2024/03/04 05:16:35;;;;;;;0.40;0.40;;;;;;;7.95;91.59;96814.44;4976493;28;20082;-66
2024/03/04 05:19:03;;;;;;;0.40;0.40;;;;;;;7.34;96.94;96817.69;4962137;28;20058;-65
2024/03/04 05:21:30;;;;;;;0.40;0.40;;;;;;;7.35;98.80;96819.28;4961478;28;20437;-67
2024/03/04 05:23:57;;;;;;;0.40;0.40;;;;;;;7.74;97.86;96832.06;4976001;28;20059;-68
2024/03/04 05:26:24;;;;;;;0.40;0.40;;;;;;;7.97;95.91;96823.13;4961529;28;20146;-66
2024/03/04 05:28:51;;;;;;;0.40;0.40;;;;;;;7.92;95.51;96821.44;4961656;28;20086;-67
2024/03/04 05:31:18;;;;;;;0.40;0.40;;;;;;;7.98;95.21;96825.56;4961785;28;20078;-65
2024/03/04 05:33:47;;;;;;;0.40;0.40;;;;;;;7.69;97.39;96824.09;4975752;28;20058;-66
2024/03/04 05:36:14;;;;;;;0.40;0.40;;;;;;;8.09;96.61;96832.13;4961305;28;20046;-66
2024/03/04 05:38:41;;;;;;;0.40;0.40;;;;;;;8.28;94.56;96825.88;4959377;28;20516;-67
2024/03/04 05:41:10;;;;;;;0.43;0.43;;;;;;;8.12;94.02;96784.50;4961196;28;20080;-66
2024/03/04 05:43:37;;;;;;;0.50;0.50;;;;;;;8.59;92.58;96822.97;4961423;28;20147;-67
2024/03/04 05:46:04;;;;;;;0.43;0.43;;;;;;;8.33;91.62;96781.44;4960761;28;20050;-66
2024/03/04 05:48:32;;;;;;;0.40;0.40;;;;;;;7.99;94.27;96807.03;4959673;28;20533;-65
2024/03/04 05:50:59;;;;;;;0.40;0.40;;;;;;;8.25;94.33;96845.91;4975276;28;20069;-69
2024/03/04 05:53:26;;;;;;;0.40;0.40;;;;;;;8.37;94.40;96837.50;4961747;28;20153;-67
2024/03/04 05:55:53;;;;;;;0.40;0.40;;;;;;;8.38;93.59;96817.00;4959947;28;20540;-66
2024/03/04 05:58:22;;;;;;;0.40;0.40;;;;;;;8.53;93.26;96836.28;4960720;28;20046;-66
2024/03/04 06:00:49;;;;;;;0.40;0.40;;;;;;;8.46;93.83;96829.78;4959890;28;20733;-67
2024/03/04 06:03:16;;;;;;;0.40;0.40;;;;;;;8.79;92.75;96843.91;4959536;28;20055;-66
2024/03/04 06:05:43;;;;;;;0.40;0.40;;;;;;;8.83;91.97;96861.38;4974052;28;20065;-67
2024/03/04 06:08:10;;;;;;;0.40;0.40;;;;;;;9.16;89.89;96848.63;4959466;28;20051;-67
2024/03/04 06:10:36;;;;;;;0.43;0.43;;;;;;;9.31;88.63;96855.19;4959550;28;20058;-66
2024/03/04 06:13:04;;;;;;;0.40;0.40;;;;;;;7.46;87.56;96539.28;4958170;28;20069;-69
2024/03/04 06:15:31;;;;;;;0.50;0.50;;;;;;;8.63;87.47;96735.53;4960849;28;20062;-66
2024/03/04 06:17:58;;;;;;;0.50;0.50;;;;;;;9.54;86.93;96864.31;4959170;28;20046;-67
2024/03/04 06:20:25;;;;;;;0.40;0.40;;;;;;;9.66;85.82;96850.31;4959247;28;20055;-67
2024/03/04 06:22:52;;;;;;;0.43;0.43;;;;;;;9.60;86.06;96848.22;4960682;28;20151;-68
2024/03/04 06:25:19;;;;;;;0.45;0.45;;;;;;;9.73;85.28;96853.22;4959463;28;20054;-67
2024/03/04 06:27:46;;;;;;;0.47;0.47;;;;;;;9.39;85.16;96801.63;4959905;28;20074;-66
2024/03/04 06:30:13;;;;;;;0.50;0.50;;;;;;;9.89;84.19;96853.88;4959678;28;20073;-66
2024/03/04 06:32:40;;;;;;;0.50;0.50;;;;;;;8.91;83.64;96702.91;4960789;28;20142;-69
2024/03/04 06:35:07;;;;;;;0.47;0.47;;;;;;;8.82;83.76;96688.56;4959081;28;20410;-69
2024/03/04 06:37:35;;;;;;;0.50;0.50;;;;;;;8.74;84.04;96657.22;4959026;28;20107;-69
2024/03/04 06:40:02;;;;;;;0.40;0.40;;;;;;;9.84;84.97;96856.94;4960084;28;20533;-67
2024/03/04 06:42:29;;;;;;;0.50;0.50;;;;;;;9.88;84.51;96852.25;4960274;28;20051;-67
2024/03/04 06:44:56;;;;;;;0.40;0.40;;;;;;;9.56;85.53;96850.94;4960420;28;20062;-65
2024/03/04 06:47:23;;;;;;;0.40;0.40;;;;;;;9.56;86.67;96856.47;4960661;28;20051;-67
2024/03/04 06:49:50;;;;;;;0.50;0.50;;;;;;;9.84;85.76;96829.28;4961014;28;20055;-67
2024/03/04 06:52:17;;;;;;;0.50;0.50;;;;;;;10.02;84.92;96858.03;4959443;28;20529;-66
2024/03/04 06:54:44;;;;;;;0.50;0.50;;;;;;;9.40;84.46;96786.66;4960850;28;20058;-67
2024/03/04 06:57:14;;;;;;;0.50;0.50;;;;;;;9.74;85.59;96852.03;4960332;28;20058;-66
2024/03/04 06:59:41;;;;;;;0.50;0.50;;;;;;;10.09;85.60;96852.66;4960015;28;20050;-67
2024/03/04 07:02:08;;;;;;;0.50;0.50;;;;;;;9.80;83.96;96788.91;4959837;28;20050;-67
2024/03/04 07:04:35;;;;;;;0.50;0.50;;;;;;;9.79;84.02;96815.75;4963150;28;20513;-66
2024/03/04 07:07:01;;;;;;;0.50;0.50;;;;;;;8.74;85.99;96675.78;4963240;28;20081;-66
2024/03/04 07:09:28;;;;;;;0.50;0.50;;;;;;;9.74;86.57;96851.22;4963634;28;20466;-67
2024/03/04 07:11:55;;;;;;;0.50;0.50;;;;;;;10.14;86.16;96849.56;4963225;28;20062;-66
2024/03/04 07:14:22;;;;;;;0.50;0.50;;;;;;;10.28;84.04;96822.09;4961158;28;20117;-66
2024/03/04 07:16:48;;;;;;;0.50;0.50;;;;;;;10.68;82.94;96841.63;4963012;28;20248;-67
2024/03/04 07:19:15;;;;;;;0.57;0.57;;;;;;;10.19;82.79;96842.91;4961634;28;20532;-67
2024/03/04 07:21:42;;;;;;;0.50;0.50;;;;;;;10.42;82.45;96843.63;4963143;28;20059;-68
2024/03/04 07:24:09;;;;;;;0.50;0.50;;;;;;;9.63;85.71;96837.22;4963501;28;20401;-68
2024/03/04 07:26:36;;;;;;;0.50;0.50;;;;;;;9.56;87.08;96833.53;4964021;28;20059;-69
2024/03/04 07:29:04;;;;;;;0.50;0.50;;;;;;;9.21;86.67;96706.59;4963432;28;20104;-69
2024/03/04 07:31:37;;;;;;;0.50;0.50;;;;;;;10.23;84.64;96839.03;4963153;28;20076;-67
2024/03/04 07:34:07;;;;;;;0.40;0.40;;;;;;;10.21;83.77;96794.28;4963099;28;20059;-66
2024/03/04 07:36:34;;;;;;;0.50;0.50;;;;;;;10.50;82.09;96768.59;4963081;28;20058;-67
2024/03/04 07:39:03;;;;;;;0.50;0.50;;;;;;;10.59;81.92;96854.97;4961062;28;20054;-66
2024/03/04 07:41:30;;;;;;;0.50;0.50;;;;;;;10.58;82.46;96847.84;4961776;28;20059;-67
2024/03/04 07:43:57;;;;;;;0.47;0.47;;;;;;;10.70;81.45;96821.88;4960960;28;20054;-67
2024/03/04 07:46:24;;;;;;;0.45;0.45;;;;;;;11.01;80.08;96827.00;4962586;28;20050;-67
2024/03/04 07:48:51;;;;;;;0.50;0.50;;;;;;;11.19;80.29;96844.63;4962807;28;20138;-67
2024/03/04 07:51:17;;;;;;;0.40;0.40;;;;;;;11.22;79.65;96843.09;4961693;28;20063;-69
2024/03/04 07:53:44;;;;;;;0.50;0.50;;;;;;;11.55;79.03;96851.34;4962482;28;20058;-67
2024/03/04 07:56:11;;;;;;;0.50;0.50;;;;;;;11.70;77.77;96850.34;4962430;28;20391;-67
2024/03/04 07:58:38;;;;;;;0.55;0.55;;;;;;;11.88;77.57;96854.09;4962626;28;20057;-67
2024/03/04 08:01:05;;;;;;;0.50;0.50;;;;;;;12.00;76.50;96839.91;4962605;28;20066;-67
2024/03/04 08:03:32;;;;;;;0.60;0.60;;;;;;;11.59;76.03;96752.31;4962659;28;20061;-66
2024/03/04 08:05:59;;;;;;;0.50;0.50;;;;;;;11.68;76.54;96824.97;4962204;28;20054;-68
2024/03/04 08:08:26;;;;;;;0.50;0.50;;;;;;;10.99;76.25;96726.00;4961773;28;20070;-67
2024/03/04 08:10:53;;;;;;;0.50;0.50;;;;;;;12.14;75.92;96849.13;4963308;28;20086;-68
2024/03/04 08:13:20;;;;;;;0.60;0.60;;;;;;;12.26;74.11;96848.03;4962416;28;20066;-65
2024/03/04 08:15:48;;;;;;;0.50;0.50;;;;;;;12.07;73.07;96778.88;4962341;28;20050;-67
2024/03/04 08:18:15;;;;;;;0.50;0.50;;;;;;;12.54;72.25;96848.22;4960889;28;20054;-68
2024/03/04 08:20:43;;;;;;;0.52;0.52;;;;;;;12.57;72.99;96854.97;4960800;28;20047;-67
2024/03/04 08:23:10;;;;;;;0.50;0.50;;;;;;;12.67;71.66;96852.28;4962102;28;20051;-67
2024/03/04 08:25:37;;;;;;;0.60;0.60;;;;;;;11.40;74.47;96803.25;4962416;28;20094;-67
2024/03/04 08:28:05;;;;;;;0.60;0.60;;;;;;;12.23;73.30;96843.28;4962094;28;20054;-67
2024/03/04 08:30:42;;;;;;;0.50;0.50;;;;;;;12.40;73.06;96848.13;4960964;28;20057;-67
2024/03/04 08:33:09;;;;;;;0.60;0.60;;;;;;;12.47;72.48;96845.41;4962086;28;20050;-67
2024/03/04 08:35:36;;;;;;;0.60;0.60;;;;;;;12.45;72.81;96845.00;4952017;28;20103;-67
2024/03/04 08:38:02;;;;;;;0.55;0.55;;;;;;;12.66;71.36;96855.44;4960964;28;20142;-67
2024/03/04 08:40:31;;;;;;;0.57;0.57;;;;;;;11.41;71.97;96632.91;4961934;28;20136;-67
2024/03/04 08:42:58;;;;;;;0.60;0.60;;;;;;;12.88;70.84;96840.47;4962386;28;20124;-68
2024/03/04 08:45:25;;;;;;;0.60;0.60;;;;;;;12.59;72.17;96856.22;4961964;28;20055;-67
2024/03/04 08:47:53;;;;;;;0.60;0.60;;;;;;;12.82;71.19;96842.81;4961685;28;20166;-67
2024/03/04 08:50:19;;;;;;;0.50;0.50;;;;;;;13.03;69.48;96856.88;4961158;28;20082;-67
2024/03/04 08:52:47;;;;;;;0.50;0.50;;;;;;;13.22;68.68;96834.28;4947821;28;20082;-67
2024/03/04 08:55:14;;;;;;;0.50;0.50;;;;;;;13.45;67.59;96853.44;4941931;28;20441;-67
2024/03/04 08:57:41;;;;;;;0.57;0.57;;;;;;;13.57;67.59;96839.97;4942661;28;20090;-67
2024/03/04 09:00:08;;;;;;;0.60;0.60;;;;;;;13.72;67.35;96859.47;4955663;28;20070;-68
2024/03/04 09:02:34;;;;;;;0.57;0.57;;;;;;;13.64;65.94;96820.47;4961746;28;20517;-67
2024/03/04 09:05:02;;;;;;;0.60;0.60;;;;;;;13.98;66.09;96859.09;4961936;28;20406;-66
2024/03/04 09:07:33;;;;;;;0.60;0.60;;;;;;;13.33;66.69;96851.81;4975929;28;20201;-68
2024/03/04 09:10:00;;;;;;;0.60;0.60;;;;;;;12.94;69.02;96828.59;4960646;28;20050;-68
2024/03/04 09:12:28;;;;;;;0.60;0.60;;;;;;;13.67;66.76;96839.16;4961902;28;20104;-67
2024/03/04 09:14:55;;;;;;;0.60;0.60;;;;;;;13.87;65.32;96816.50;4961180;28;20605;-68
2024/03/04 09:17:22;;;;;;;0.60;0.60;;;;;;;14.47;64.13;96828.44;4961972;28;20058;-68
2024/03/04 09:19:52;;;;;;;0.60;0.60;;;;;;;12.25;65.76;96656.81;4961911;28;20081;-69
2024/03/04 09:22:22;;;;;;;0.60;0.60;;;;;;;13.46;67.10;96839.13;4961430;28;20073;-67
2024/03/04 09:24:49;;;;;;;0.60;0.60;;;;;;;13.86;65.41;96829.66;4959587;28;20505;-65
2024/03/04 09:27:16;;;;;;;0.60;0.60;;;;;;;12.63;70.37;96843.13;4959246;28;20046;-66
2024/03/04 09:29:42;;;;;;;0.60;0.60;;;;;;;10.59;71.26;96506.00;4959758;28;20446;-67
2024/03/04 09:32:09;;;;;;;0.60;0.60;;;;;;;13.37;67.10;96774.69;4961420;28;20138;-65
2024/03/04 09:34:36;;;;;;;0.50;0.50;;;;;;;13.95;64.52;96832.03;4959088;28;20890;-65
2024/03/04 09:37:03;;;;;;;0.60;0.60;;;;;;;13.51;64.33;96832.38;4960898;28;20120;-67
2024/03/04 09:39:30;;;;;;;0.60;0.60;;;;;;;13.76;65.23;96807.34;4959714;28;20155;-66
2024/03/04 09:41:58;;;;;;;0.60;0.60;;;;;;;13.32;65.88;96766.78;4961723;28;20062;-67
2024/03/04 09:44:27;;;;;;;0.70;0.70;;;;;;;14.37;63.01;96818.13;4961693;28;20446;-67
2024/03/04 09:46:57;;;;;;;0.60;0.60;;;;;;;14.64;61.25;96814.47;4961304;28;20582;-66
2024/03/04 09:49:29;;;;;;;0.57;0.57;;;;;;;13.55;65.36;96814.50;4961526;28;20152;-66
2024/03/04 09:52:01;;;;;;;0.70;0.70;;;;;;;14.19;63.53;96804.19;4961426;28;20061;-67
2024/03/04 09:54:30;;;;;;;0.60;0.60;;;;;;;14.56;61.50;96803.72;4959825;28;20108;-66
2024/03/04 09:56:57;;;;;;;0.60;0.60;;;;;;;14.97;60.28;96799.22;4961051;28;20125;-66
2024/03/04 09:59:25;;;;;;;0.60;0.60;;;;;;;15.27;59.69;96743.66;4961069;28;20051;-68
2024/03/04 10:01:53;;;;;;;0.70;0.70;;;;;;;14.78;57.54;96730.78;4961089;28;20062;-66
2024/03/04 10:04:22;;;;;;;0.70;0.70;;;;;;;14.77;58.46;96745.13;4961258;28;20055;-66
2024/03/04 10:06:49;;;;;;;0.70;0.70;;;;;;;15.51;58.29;96790.19;4960987;28;20151;-67
2024/03/04 10:09:16;;;;;;;0.70;0.70;;;;;;;15.81;56.78;96782.00;4960894;28;20514;-67
2024/03/04 10:11:45;;;;;;;0.60;0.60;;;;;;;14.59;59.29;96783.44;4959596;28;20054;-67
2024/03/04 10:14:13;;;;;;;0.60;0.60;;;;;;;14.65;59.40;96787.41;4960634;28;20069;-67
2024/03/04 10:16:40;;;;;;;0.63;0.63;;;;;;;14.07;59.56;96684.03;4961239;28;20134;-67
2024/03/04 10:19:07;;;;;;;0.70;0.70;;;;;;;14.98;59.15;96778.50;4960927;28;20133;-66
2024/03/04 10:21:35;;;;;;;0.63;0.63;;;;;;;15.65;58.05;96773.34;4960862;28;20051;-67
2024/03/04 10:24:10;;;;;;;0.70;0.70;;;;;;;15.94;56.12;96769.16;4960476;28;20609;-65
2024/03/04 10:26:45;;;;;;;0.70;0.70;;;;;;;15.02;58.25;96766.13;4960246;28;20069;-66
2024/03/04 10:29:15;;;;;;;0.60;0.60;;;;;;;14.72;59.24;96770.63;4959890;28;20529;-66
2024/03/04 10:31:52;;;;;;;0.60;0.60;;;;;;;15.45;58.00;96768.72;4960516;28;20523;-66
2024/03/04 10:34:21;;;;;;;0.70;0.70;;;;;;;15.94;56.10;96724.44;4958591;28;20055;-66
2024/03/04 10:36:51;;;;;;;0.70;0.70;;;;;;;16.25;55.48;96756.06;4960388;28;20050;-66
2024/03/04 10:39:18;;;;;;;0.70;0.70;;;;;;;16.40;54.15;96744.38;4963002;28;20055;-66
2024/03/04 10:41:47;;;;;;;0.70;0.70;;;;;;;16.49;53.33;96727.09;4964175;28;20054;-66
2024/03/04 10:44:26;;;;;;;0.70;0.70;;;;;;;16.94;53.09;96770.53;4964009;28;20937;-67
2024/03/04 10:46:55;;;;;;;0.70;0.70;;;;;;;16.86;52.93;96751.44;4964235;28;20579;-67
2024/03/04 10:49:28;;;;;;;0.80;0.80;;;;;;;16.61;52.79;96690.22;4964132;28;20414;-67
2024/03/04 10:51:55;;;;;;;0.80;0.80;;;;;;;17.05;52.73;96743.22;4963813;28;20593;-67
2024/03/04 10:54:40;;;;;;;0.80;0.80;;;;;;;17.08;52.91;96735.97;4963281;28;20427;-67
2024/03/04 10:57:30;;;;;;;0.70;0.70;;;;;;;16.29;52.83;96676.59;4963973;28;20131;-67
2024/03/04 11:00:17;;;;;;;0.63;0.63;;;;;;;16.10;54.17;96738.69;4963966;28;20101;-67
2024/03/04 11:03:04;;;;;;;0.80;0.80;;;;;;;16.07;54.77;96738.69;4963360;28;20058;-67
2024/03/04 11:05:33;;;;;;;0.70;0.70;;;;;;;15.85;54.76;96735.31;4963832;28;20047;-67
2024/03/04 11:08:10;;;;;;;0.63;0.63;;;;;;;16.04;54.83;96733.94;4963863;28;20161;-67
2024/03/04 11:10:53;;;;;;;0.70;0.70;;;;;;;15.83;55.16;96729.34;4963224;28;20054;-68
2024/03/04 11:13:23;;;;;;;0.70;0.70;;;;;;;15.77;55.64;96724.59;4963165;28;20061;-67
2024/03/04 11:15:58;;;;;;;0.68;0.68;;;;;;;15.74;55.38;96720.66;4963537;28;20069;-66
2024/03/04 11:18:36;;;;;;;0.70;0.70;;;;;;;15.34;55.92;96654.31;4961929;28;20062;-67
2024/03/04 11:21:04;;;;;;;0.70;0.70;;;;;;;15.59;56.22;96674.47;4963665;28;20133;-66
2024/03/04 11:23:33;;;;;;;0.70;0.70;;;;;;;15.92;55.82;96710.09;4962233;28;20163;-67
2024/03/04 11:26:00;;;;;;;0.68;0.68;;;;;;;14.00;57.91;96567.09;4963556;28;20058;-68
2024/03/04 11:28:28;;;;;;;0.70;0.70;;;;;;;14.85;58.10;96682.56;4961900;28;20073;-67
2024/03/04 11:30:55;;;;;;;0.63;0.63;;;;;;;14.83;58.92;96682.97;4963127;28;20116;-67
2024/03/04 11:33:41;;;;;;;0.68;0.68;;;;;;;14.65;59.02;96642.44;4963713;28;20051;-67
2024/03/04 11:36:10;;;;;;;0.70;0.70;;;;;;;15.30;58.04;96680.69;4964069;28;20051;-67
2024/03/04 11:38:45;;;;;;;0.63;0.63;;;;;;;15.45;56.53;96649.47;4963628;28;20082;-68
2024/03/04 11:41:12;;;;;;;0.70;0.70;;;;;;;15.38;56.49;96573.38;4961832;28;20052;-67
2024/03/04 11:43:44;;;;;;;0.60;0.60;;;;;;;16.25;55.80;96661.84;4977625;28;20050;-68